Flight Track Log - Related Links

Times and Time Zones

All times are in EDT time to prevent confusion due to time zone crossing. See the FFT403 flight status page for this flight to view local times or setup timezone preferences in your user account.

Time Position Orientation Groundspeed Altitude Reporting Facility
EDT Latitude Longitude Course Direction KTS MPH feet Rate Location/Type
Thu 11:12:10 AM 39.8333 -104.7500 255° West 188 216 6,900  Level Denver TRACON
Thu 11:13:10 AM 39.8167 -104.8333 255° West 247 284 7,900 1,966 Climbing Denver TRACON
Thu 11:14:09 AM 39.7886 -104.9228 248° West 271 312 10,800 2,479 Climbing Denver Center
Thu 11:15:11 AM 39.7547 -105.0267 247° West 310 357 12,900 2,226 Climbing Denver Center
Thu 11:16:13 AM 39.7144 -105.1464 246° West 334 384 15,400 2,565 Climbing Denver Center
Thu 11:17:15 AM 39.6747 -105.2619 246° West 350 403 18,200 1,984 Climbing Denver Center
Thu 11:18:17 AM 39.6372 -105.3831 248° West 361 415 19,500 1,597 Climbing Denver Center
Thu 11:19:19 AM 39.5972 -105.5194 249° West 376 433 21,500 1,742 Climbing Denver Center
Thu 11:20:21 AM 39.5586 -105.6536 250° West 399 459 23,100 1,500 Climbing Denver Center
Thu 11:21:23 AM 39.5133 -105.8036 249° West 421 484 24,600 1,548 Climbing Denver Center
Thu 11:22:25 AM 39.4761 -105.9364 250° West 421 484 26,300 1,597 Climbing Denver Center
Thu 11:23:27 AM 39.4333 -106.0806 249° West 428 493 27,900 1,500 Climbing Denver Center
Thu 11:24:29 AM 39.3831 -106.2492 249° West 433 498 29,400 1,161 Climbing Denver Center
Thu 11:25:31 AM 39.3417 -106.3911 249° West 439 505 30,300 1,452 Climbing Denver Center
Thu 11:26:33 AM 39.2919 -106.5547 249° West 438 504 32,400 1,306 Climbing Denver Center
Thu 11:27:35 AM 39.2475 -106.6922 247° West 434 499 33,000 290 Climbing Denver Center
Thu 11:28:37 AM 39.1956 -106.7969 237° Southwest 433 498 33,000 480 Level Denver Center
Thu 11:29:40 AM 39.0964 -106.9522 231° Southwest 437 503 34,000 480 Climbing Denver Center
Thu 11:30:42 AM 39.0106 -107.0867 231° Southwest 435 501 34,000  Level Denver Center
Thu 11:31:44 AM 38.9375 -107.2033 231° Southwest 437 503 34,000  Level Denver Center
Thu 11:32:46 AM 38.8636 -107.3189 231° Southwest 438 504 34,000  Level Denver Center
Thu 11:33:48 AM 38.7764 -107.4550 231° Southwest 440 506 34,000  Level Denver Center
Thu 11:34:50 AM 38.7025 -107.5728 231° Southwest 442 509 34,000 48 Level Denver Center
Thu 11:35:52 AM 38.6136 -107.7094 230° Southwest 445 512 34,100 629 Climbing Denver Center
Thu 11:36:54 AM 38.5383 -107.8256 230° Southwest 443 510 35,300 919 Climbing Denver Center
Thu 11:37:56 AM 38.4522 -107.9594 231° Southwest 437 503 36,000 339 Climbing Denver Center
Thu 11:38:58 AM 38.3781 -108.0714 230° Southwest 432 497 36,000  Level Denver Center
Thu 11:40:00 AM 38.2917 -108.2025 230° Southwest 432 497 36,000  Level Denver Center
Thu 11:41:02 AM 38.2164 -108.3189 231° Southwest 440 506 36,000  Level Denver Center
Thu 11:42:04 AM 38.1292 -108.4536 231° Southwest 439 505 36,000  Level Denver Center
Thu 11:43:06 AM 38.0503 -108.5722 230° Southwest 436 502 36,000 -48 Level Denver Center
Thu 11:44:08 AM 37.9775 -108.6803 230° Southwest 426 490 35,900  Descending Denver Center
Thu 11:45:10 AM 37.8919 -108.8064 229° Southwest 424 488 36,000  Climbing Denver Center
Thu 11:46:12 AM 37.8186 -108.9169 230° Southwest 426 490 35,900  Descending Denver Center
Thu 11:47:14 AM 37.7514 -109.0603 239° Southwest 424 488 36,000 48 Climbing Denver Center
Thu 11:48:17 AM 37.6961 -109.1839 241° Southwest 424 488 36,000  Level Denver Center
Thu 11:49:19 AM 37.6328 -109.3269 241° Southwest 421 484 36,000  Level Denver Center
Thu 11:50:21 AM 37.5781 -109.4486 240° Southwest 419 482 36,000  Level Denver Center
Thu 11:51:23 AM 37.5144 -109.5911 241° Southwest 417 480 36,000  Level Denver Center
Thu 11:52:24 AM 37.4694 -109.6911 240° Southwest 415 478 36,000  Level Denver Center
Thu 11:53:39 AM 37.3886 -109.8692 240° Southwest 409 471 36,000  Level Denver Center
Thu 11:54:41 AM 37.3344 -109.9878 240° Southwest 409 471 36,000  Level Denver Center
Thu 11:55:43 AM 37.2714 -110.1281 241° Southwest 413 475 36,000  Level Denver Center
Thu 11:56:45 AM 37.2122 -110.2553 240° Southwest 417 480 36,000  Level Denver Center
Thu 11:57:48 AM 37.1542 -110.3800 240° Southwest 415 478 36,000  Level Denver Center
Thu 11:58:50 AM 37.0969 -110.5033 240° Southwest 411 473 36,000  Level Denver Center
Thu 11:59:52 AM 37.0406 -110.6278 240° Southwest 412 474 36,000  Level Denver Center
Thu 12:00:54 PM 36.9842 -110.7481 240° Southwest 404 465 36,000  Level Denver Center
Thu 12:01:56 PM 36.9156 -110.8950 240° Southwest 407 468 36,000  Level Denver Center
Thu 12:02:58 PM 36.8586 -111.0175 240° Southwest 407 468 36,000  Level Denver Center
Thu 12:04:00 PM 36.8031 -111.1375 240° Southwest 403 464 36,000  Level Denver Center
Thu 12:05:02 PM 36.7450 -111.2603 239° Southwest 406 467 36,000  Level Denver Center
Thu 12:06:04 PM 36.6858 -111.3842 239° Southwest 412 474 36,000  Level Denver Center
Thu 12:07:06 PM 36.6264 -111.5094 239° Southwest 417 480 36,000  Level Denver Center
Thu 12:08:08 PM 36.5542 -111.6575 239° Southwest 417 480 36,000  Level Denver Center
Thu 12:09:10 PM 36.5069 -111.7556 239° Southwest 416 479 36,000  Level Denver Center
Thu 12:10:12 PM 36.4375 -111.9017 239° Southwest 410 472 36,000  Level Denver Center
Thu 12:10:34 PM 36.4258 -111.9239 237° Southwest 409 471 36,000  Level Los Angeles Center
Thu 12:11:36 PM 36.3556 -112.0689 239° Southwest 408 470 36,000 -48 Level Los Angeles Center
Thu 12:12:38 PM 36.2972 -112.1892 239° Southwest 407 468 35,900  Descending Los Angeles Center
Thu 12:13:40 PM 36.2386 -112.3100 239° Southwest 408 470 36,000 48 Climbing Los Angeles Center
Thu 12:14:42 PM 36.1789 -112.4319 239° Southwest 411 473 36,000  Level Los Angeles Center
Thu 12:15:44 PM 36.1058 -112.5792 238° Southwest 417 480 36,000  Level Los Angeles Center
Thu 12:16:47 PM 36.0461 -112.7008 239° Southwest 417 480 36,000  Level Los Angeles Center
Thu 12:17:49 PM 35.9861 -112.8211 238° Southwest 413 475 36,000  Level Los Angeles Center
Thu 12:18:51 PM 35.9303 -112.9350 239° Southwest 411 473 36,000  Level Los Angeles Center
Thu 12:19:53 PM 35.8714 -113.0533 238° Southwest 409 471 36,000  Level Los Angeles Center
Thu 12:20:55 PM 35.8119 -113.1711 238° Southwest 409 471 36,000  Level Los Angeles Center
Thu 12:21:57 PM 35.7411 -113.3131 238° Southwest 410 472 36,000  Level Los Angeles Center
Thu 12:22:59 PM 35.6814 -113.4325 238° Southwest 414 476 36,000  Level Los Angeles Center
Thu 12:24:01 PM 35.6217 -113.5514 238° Southwest 412 474 36,000  Level Los Angeles Center
Thu 12:25:03 PM 35.5714 -113.6769 244° Southwest 412 474 36,000  Level Los Angeles Center
Thu 12:26:05 PM 35.5097 -113.8272 243° Southwest 414 476 36,000  Level Los Angeles Center
Thu 12:27:20 PM 35.4594 -113.9517 244° Southwest 410 472 36,000  Level Los Angeles Center
Thu 12:28:22 PM 35.4000 -114.0953 243° Southwest 408 470 36,000  Level Los Angeles Center
Thu 12:29:24 PM 35.3489 -114.2200 243° Southwest 408 470 36,000  Level Los Angeles Center
Thu 12:30:26 PM 35.2889 -114.3689 244° Southwest 405 466 36,000  Level Los Angeles Center
Thu 12:31:28 PM 35.2364 -114.4936 243° Southwest 409 471 36,000  Level Los Angeles Center
Thu 12:32:31 PM 35.1844 -114.6172 243° Southwest 408 470 36,000  Level Los Angeles Center
Thu 12:33:33 PM 35.1339 -114.7397 243° Southwest 406 467 36,000  Level Los Angeles Center
Thu 12:34:35 PM 35.0817 -114.8633 243° Southwest 406 467 36,000  Level Los Angeles Center
Thu 12:35:37 PM 35.0189 -115.0128 243° Southwest 408 470 36,000  Level Los Angeles Center
Thu 12:36:39 PM 34.9661 -115.1378 243° Southwest 410 472 36,000  Level Los Angeles Center
Thu 12:37:41 PM 34.9136 -115.2625 243° Southwest 411 473 36,000  Level Los Angeles Center
Thu 12:38:43 PM 34.8614 -115.3856 243° Southwest 410 472 36,000  Level Los Angeles Center
Thu 12:39:45 PM 34.8086 -115.5075 242° Southwest 408 470 36,000  Level Los Angeles Center
Thu 12:40:47 PM 34.7586 -115.6292 243° Southwest 408 470 36,000  Level Los Angeles Center
Thu 12:41:49 PM 34.7042 -115.7519 242° Southwest 412 474 36,000  Level Los Angeles Center
Thu 12:42:51 PM 34.6425 -115.8972 243° Southwest 407 468 36,000  Level Los Angeles Center
Thu 12:43:54 PM 34.5886 -116.0189 242° Southwest 406 467 36,000  Level Los Angeles Center
Thu 12:44:56 PM 34.5364 -116.1397 242° Southwest 405 466 36,000 -726 Level Los Angeles Center
Thu 12:45:58 PM 34.4842 -116.2606 242° Southwest 405 466 34,500 -2,274 Descending Los Angeles Center
Thu 12:47:00 PM 34.4281 -116.3867 242° Southwest 422 486 31,300 -2,806 Descending Los Angeles Center
Thu 12:48:02 PM 34.3714 -116.5150 242° Southwest 430 495 28,700 -2,710 Descending Los Angeles Center
Thu 12:49:04 PM 34.3056 -116.6631 242° Southwest 419 482 25,700 -2,565 Descending Los Angeles Center
Thu 12:50:06 PM 34.2519 -116.7842 242° Southwest 409 471 23,400 -1,989 Descending Los Angeles Center
Thu 12:52:05 PM 34.1500 -117.0167 242° Southwest 364 419 19,700 -1,877 Descending Southern California TRACON
Thu 12:53:05 PM 34.1000 -117.1167 239° Southwest 358 412 17,800 -1,368 Descending Southern California TRACON
Thu 12:53:59 PM 34.0667 -117.2000 244° Southwest 335 386 17,100 -1,158 Descending Southern California TRACON
Thu 12:54:59 PM 34.0500 -117.3000 259° West 319 367 15,600 -1,326 Descending Southern California TRACON
Thu 12:57:00 PM 34.0333 -117.5167 265° West 295 339 13,100 -1,303 Descending Southern California TRACON
Thu 12:57:54 PM 34.0333 -117.6167 270° West 303 349 11,800 -1,550 Descending Southern California TRACON
Thu 12:59:00 PM 34.0167 -117.7167 259° West 281 323 10,000 -1,524 Descending Southern California TRACON
Thu 01:00:00 PM 34.0167 -117.8167 270° West 284 327 8,600 -1,250 Descending Southern California TRACON
Thu 01:01:00 PM 34.0000 -117.9000 256° West 271 312 7,500 -1,000 Descending Southern California TRACON
Thu 01:02:00 PM 33.9833 -118.0000 259° West 245 282 6,600 -900 Descending Southern California TRACON
Thu 01:03:00 PM 33.9833 -118.0667 270° West 224 258 5,700 -900 Descending Southern California TRACON
Thu 01:04:00 PM 33.9833 -118.1333 270° West 202 232 4,800 -889 Descending Southern California TRACON
Thu 01:04:48 PM 33.9733 -118.1811 256° West 198 228 4,100 -1,036 Descending Los Angeles Center
Thu 01:05:50 PM 33.9675 -118.2339 262° West 173 199 2,900 -968 Descending Los Angeles Center
Thu 01:06:52 PM 33.9631 -118.2786 263° West 153 176 2,100 -823 Descending Los Angeles Center
Thu 01:07:54 PM 33.9572 -118.3356 263° West 146 168 1,200 -677 Descending Los Angeles Center
Thu 01:08:56 PM 33.9533 -118.3814 264° West 142 163 700 -532 Descending Los Angeles Center
Thu 01:09:58 PM 33.9486 -118.4203 262° West 140 161 100 -581 Descending Los Angeles Center
Thu 01:11:00 PM 33.9425 -118.4081 259° West  Level Estimated
Thu 01:18:00 PM 33.9425 -118.4081 259° West  Level Estimated

Login

Don't have an account? Register now (free) for customized features, flight alerts, and more!